Meteo Giornale » Osservazioni meteo Stati Uniti (USA) » Hobbs-Lea Co
ore: 15:50 - Osservazioni Meteo Hobbs-Lea Co
Lat. 32° 41' N Lon. 103° 13' W Alt. 1115 metri s.l.m.
35 °C
Nuvoloso
Temp. 24 Ore
21 °C
36 °C
Est/Nord-Est
13 Km/h
Dew point 10 °C
Umidità 21 %
Visibilità 10 Km
Il sole sorge alle ore 06:27
Il sole tramonta alle ore 19:19
| Data e Ora | Cielo e Fenomeni | T °C | DP °C | Um. % | Pres. hPa | Vis. km | Vento km/h | |
|---|---|---|---|---|---|---|---|---|
| Oggi h: 15:50 | Nuvoloso | 35 | 10 | 21 | 1016 | 10 | E/NE 13 | |
| Oggi h: 14:50 | Nuvoloso | 35 | 10 | 21 | 1017 | 10 | E/NE 18.5 | |
| Oggi h: 13:50 | Nuvoloso | 34 | 11 | 24 | 1017 | 10 | E 18.5 | |
| Oggi h: 12:50 | Poco Nuvoloso | 34 | 12 | 26 | 1018 | 10 | E/NE 14.8 | |
| Oggi h: 11:50 | Poco Nuvoloso | 32 | 14 | 33 | 1019 | 10 | SE 16.7 | |
| Oggi h: 10:50 | Poco Nuvoloso | 31 | 16 | 40 | 1019 | 10 | SE 18.5 | |
| Oggi h: 09:50 | Sereno | 28 | 17 | 51 | 1019 | 10 | S/SE 25.9 | |
| Oggi h: 08:50 | Sereno | 26 | 17 | 57 | 1019 | 10 | S/SE 24 | |
| Oggi h: 07:50 | Sereno | 24 | 16 | 60 | 1019 | 10 | S/SE 25.9 | |
| Oggi h: 06:50 | Sereno | 21 | 14 | 64 | 1018 | 10 | SE 9.3 | |
| Oggi h: 05:50 | Sereno | 23 | 14 | 56 | 1018 | 10 | S/SE 14.8 | |
| Oggi h: 03:35 | Sereno | 25 | 14 | 50 | 1017 | 10 | S 20.3 | |
| Oggi h: 00:15 | Sereno | 26 | 11 | 39 | 1017 | 10 | S 13 | |
| Ieri h: 23:55 | Sereno | 27 | 11 | 36 | 1017 | 10 | S 14.8 | |
| Ieri h: 23:35 | Sereno | 27 | 10 | 34 | 1017 | 10 | S 14.8 | |
| Ieri h: 23:15 | Sereno | 26 | 10 | 36 | 1017 | 10 | S/SE 11.1 | |
| Ieri h: 22:55 | Sereno | 27 | 10 | 34 | 1017 | 10 | S/SE 13 | |
| Ieri h: 22:35 | Sereno | 27 | 11 | 36 | 1017 | 10 | S/SE 13 | |
| Ieri h: 22:15 | Sereno | 28 | 11 | 34 | 1017 | 10 | SE 13 | |
| Ieri h: 21:55 | Sereno | 29 | 11 | 32 | 1017 | 10 | SE 14.8 | |
| Ieri h: 21:35 | Sereno | 29 | 11 | 32 | 1017 | 10 | SE 16.7 | |
| Ieri h: 21:15 | Sereno | 30 | 11 | 30 | 1016 | 10 | SE 20.3 | |
| Ieri h: 20:55 | Sereno | 30 | 10 | 28 | 1016 | 10 | SE 16.7 | |
| Ieri h: 20:35 | Sereno | 31 | 9 | 25 | 1016 | 10 | E/SE 14.8 | |
| Ieri h: 20:15 | Sereno | 31 | 9 | 25 | 1015 | 10 | SE 14.8 | |
| Ieri h: 19:35 | Sereno | 33 | 9 | 22 | 1015 | 10 | SE 16.7 | |
| Ieri h: 19:15 | Molto Nuvoloso | 34 | 9 | 21 | 1015 | 10 | SE 18.5 | |
| Ieri h: 18:35 | Nuvoloso | 35 | 9 | 20 | 1015 | 10 | S/SE 13 | |
| Ieri h: 18:15 | Poco Nuvoloso | 35 | 9 | 20 | 1015 | 10 | S 14.8 | |
| Ieri h: 17:50 | Sereno | 36 | 8 | 18 | 1015 | 10 | E/SE 14.8 | |
| Ieri h: 16:50 | Sereno | 36 | 8 | 18 | 1015 | 10 | E/SE 14.8 | |



